Alexander von Humboldt II — DDKK2 — position and weather

sailwx.info

Track history (hours):
 
Tides and Currents Weather Stations Pressure Air Temp Water Temp Dewpoint Dewpoint Depression Visibility Wind Speed Wind Dir Waves Ship Positions

Alexander von Humboldt II

Ship's website: https://www.alex-2.de/en/

Last reported at 2020-Jan-23 06:00 UTC. Time now 2020-Jan-25 01:21 UTC.
Position N 28°26' W 014°48'.

Length 65 m; draft 4.7 m.

Type: Sailing vessel. MMSI: 218768000.

Date/timePositionNaut miles runAvg speedWind from/ knotsBaromVisibWave heightAir tempDewpointWater temp
2020-Jan-23 06:00N 28°26' W 014°48'3 5.4
2020-Jan-23 05:30N 28°23' W 014°48'49 1.9
2020-Jan-22 04:01N 27°37' W 015°08'2 3.2
2020-Jan-22 03:31N 27°38' W 015°07'15 4.2
2020-Jan-22 00:00N 27°44' W 014°52'20 5.7
2020-Jan-21 20:29N 27°50' W 014°30'29 1.7
2020-Jan-21 03:58N 27°41' W 015°01'2 3.1
2020-Jan-21 03:27N 27°41' W 015°03'1 3.1
2020-Jan-21 03:00N 27°41' W 015°05'6 3.8
2020-Jan-21 01:29N 27°42' W 015°11'1 3.1
2020-Jan-21 01:00N 27°42' W 015°13'14 3.5
2020-Jan-20 21:00N 27°41' W 014°57'13 1.0
2020-Jan-20 07:00N 27°33' W 015°09'7 6.6
2020-Jan-20 06:00N 27°32' W 015°01'3 6.6
2020-Jan-20 05:30N 27°32' W 014°58'4 7.1
2020-Jan-20 05:00N 27°32' W 014°54'12 6.7
2020-Jan-20 03:11N 27°28' W 014°40'5 6.5
2020-Jan-20 02:23N 27°26' W 014°35'13 2.3
2020-Jan-19 20:58N 27°37' W 014°43'9 4.6
2020-Jan-19 19:01N 27°43' W 014°50'2 3.7
2020-Jan-19 18:29N 27°44' W 014°52'13 6.4
2020-Jan-19 16:30N 27°50' W 015°04'16 4.7
2020-Jan-19 13:00N 28°02' W 015°17'7 3.3
2020-Jan-19 11:00N 28°06' W 015°23'3 5.1
2020-Jan-19 10:30N 28°08' W 015°25'1 2.2
2020-Jan-19 09:58N 28°09' W 015°26'0 0.0
2020-Jan-19 08:25N 28°09' W 015°26'0 0.0
2020-Jan-19 06:28N 28°09' W 015°26'0 0.0
2020-Jan-19 04:19N 28°09' W 015°26'0 0.0
2020-Jan-19 03:22N 28°09' W 015°26'0 0.0
2020-Jan-19 00:55N 28°09' W 015°26'0 0.0
2020-Jan-19 00:25N 28°09' W 015°26'0 0.0
2020-Jan-18 21:58N 28°09' W 015°26'0 0.0
2020-Jan-18 21:28N 28°09' W 015°26'0 0.0
2020-Jan-18 20:28N 28°09' W 015°26'0 0.0
2020-Jan-18 19:28N 28°09' W 015°26'0 0.0
2020-Jan-18 17:58N 28°09' W 015°26'0 0.0
2020-Jan-18 17:16N 28°09' W 015°26'0 0.0
2020-Jan-18 16:28N 28°09' W 015°26'0 0.0
2020-Jan-18 15:19N 28°09' W 015°26'0 0.0
2020-Jan-18 14:49N 28°09' W 015°26'0 0.0
2020-Jan-18 13:22N 28°09' W 015°26'0 0.0
2020-Jan-18 10:25N 28°09' W 015°26'0 0.0
2020-Jan-18 09:55N 28°09' W 015°26'0 0.0
2020-Jan-18 06:28N 28°09' W 015°26'0 0.0
2020-Jan-18 05:58N 28°09' W 015°26'0 0.0
2020-Jan-18 03:46N 28°09' W 015°26'0 0.0
2020-Jan-18 01:58N 28°09' W 015°26'0 0.0
2020-Jan-18 00:49N 28°09' W 015°26'0 0.0
2020-Jan-17 23:52N 28°09' W 015°26'0 0.0
2020-Jan-17 19:55N 28°09' W 015°26'0 0.0
2020-Jan-17 18:28N 28°09' W 015°26'0 0.0
2020-Jan-17 17:28N 28°09' W 015°26'0 0.0
2020-Jan-17 16:28N 28°09' W 015°26'0 0.0
2020-Jan-17 14:55N 28°09' W 015°26'0 0.0
2020-Jan-17 11:28N 28°09' W 015°26'0 0.0
2020-Jan-17 08:22N 28°09' W 015°26'0 0.0
2020-Jan-17 06:55N 28°09' W 015°26'0 0.0
2020-Jan-17 04:55N 28°09' W 015°26'0 0.0
2020-Jan-17 04:28N 28°09' W 015°26'0 0.0
2020-Jan-17 03:55N 28°09' W 015°26'0 0.0
2020-Jan-17 02:28N 28°09' W 015°26'0 0.0
2020-Jan-17 00:28N 28°09' W 015°26'0 0.0
2020-Jan-16 17:22N 28°09' W 015°26'0 0.0
2020-Jan-16 16:55N 28°09' W 015°26'0 0.0
2020-Jan-16 13:58N 28°09' W 015°26'0 0.0
2020-Jan-16 12:58N 28°09' W 015°26'0 0.0
2020-Jan-16 12:28N 28°09' W 015°26'0 0.0
2020-Jan-16 11:58N 28°09' W 015°26'0 0.0
2020-Jan-16 10:58N 28°09' W 015°26'0 0.0
2020-Jan-16 09:28N 28°09' W 015°26'0 0.0
2020-Jan-16 08:28N 28°09' W 015°26'0 0.0
2020-Jan-16 04:22N 28°09' W 015°26'0 0.0
2020-Jan-16 03:52N 28°09' W 015°26'0 0.0
2020-Jan-16 02:55N 28°09' W 015°26'0 0.0
2020-Jan-16 02:25N 28°09' W 015°26'0 0.0
2020-Jan-16 01:25N 28°09' W 015°26'0 0.0
2020-Jan-15 23:28N 28°09' W 015°26'0 0.0
2020-Jan-15 22:28N 28°09' W 015°26'0 0.0
2020-Jan-15 19:46N 28°09' W 015°26'0 0.0
2020-Jan-15 19:28N 28°09' W 015°26'0 0.0
2020-Jan-15 17:58N 28°09' W 015°26'0 0.0
2020-Jan-15 13:52N 28°09' W 015°26'0 0.0
2020-Jan-15 12:31N 28°09' W 015°26'2 2.4
2020-Jan-15 11:31N 28°07' W 015°23'8 4.2
2020-Jan-15 09:31N 28°15' W 015°20'2 1.9
2020-Jan-15 08:30N 28°17' W 015°20'22 6.3
2020-Jan-15 05:00N 28°39' W 015°14'5 3.3
2020-Jan-15 03:30N 28°43' W 015°11'2 2.0
2020-Jan-15 02:30N 28°43' W 015°09'1 0.8
2020-Jan-15 01:31N 28°43' W 015°10'4 2.9
2020-Jan-15 00:01N 28°41' W 015°14'6 2.3
2020-Jan-14 21:30N 28°42' W 015°08'2 4.2
2020-Jan-14 21:01N 28°43' W 015°06'2 1.3
2020-Jan-14 19:30N 28°42' W 015°04'4 3.7
2020-Jan-14 18:30N 28°41' W 015°08'2 4.2
2020-Jan-14 18:00N 28°40' W 015°10'2 4.4
2020-Jan-14 17:30N 28°40' W 015°12'2 4.6
2020-Jan-14 17:00N 28°39' W 015°15'11 5.7
2020-Jan-14 15:00N 28°34' W 015°27'3 5.4
2020-Jan-14 14:30N 28°32' W 015°29'5 5.0
2020-Jan-14 13:30N 28°34' W 015°24'10 6.7
2020-Jan-14 12:01N 28°37' W 015°13'3 5.5
2020-Jan-14 11:31N 28°38' W 015°10'3 5.1
2020-Jan-14 11:01N 28°39' W 015°08'4 4.0
2020-Jan-14 10:01N 28°41' W 015°03'12 4.3
2020-Jan-14 07:18N 28°47' W 014°52'7 5.4
2020-Jan-14 06:00N 28°52' W 014°46'2 5.0
2020-Jan-14 05:30N 28°53' W 014°44'2 0.7
2020-Jan-14 03:00N 28°54' W 014°42'7 3.4 120 / 161021.0 18.013.119.0
2020-Jan-14 01:00N 28°50' W 014°48'11 2.6
2020-Jan-13 20:31N 28°43' W 014°58'8 3.3
2020-Jan-13 18:00N 28°39' W 015°07'4 3.6
2020-Jan-13 17:01N 28°37' W 015°10'14 2.8
2020-Jan-13 12:00N 28°26' W 015°20'2 2.4
2020-Jan-13 11:00N 28°23' W 015°20'3 1.1
2020-Jan-13 08:01N 28°26' W 015°18'5 3.2
2020-Jan-13 06:31N 28°31' W 015°17'  
Track history (hours):
 
Tides and Currents Weather Stations Pressure Air Temp Water Temp Dewpoint Dewpoint Depression Visibility Wind Speed Wind Dir Waves Ship Positions

Alexander von Humboldt II

Ship's website: https://www.alex-2.de/en/

Last reported at 2020-Jan-23 06:00 UTC. Time now 2020-Jan-25 01:21 UTC.
Position N 28°26' W 014°48'.

Length 65 m; draft 4.7 m.

Type: Sailing vessel. MMSI: 218768000.

Date/timePositionNaut miles runAvg speedWind from/ knotsBaromVisibWave heightAir tempDewpointWater temp
2020-Jan-23 06:00N 28°26' W 014°48'3 5.4
2020-Jan-23 05:30N 28°23' W 014°48'49 1.9
2020-Jan-22 04:01N 27°37' W 015°08'2 3.2
2020-Jan-22 03:31N 27°38' W 015°07'15 4.2
2020-Jan-22 00:00N 27°44' W 014°52'20 5.7
2020-Jan-21 20:29N 27°50' W 014°30'29 1.7
2020-Jan-21 03:58N 27°41' W 015°01'2 3.1
2020-Jan-21 03:27N 27°41' W 015°03'1 3.1
2020-Jan-21 03:00N 27°41' W 015°05'6 3.8
2020-Jan-21 01:29N 27°42' W 015°11'1 3.1
2020-Jan-21 01:00N 27°42' W 015°13'14 3.5
2020-Jan-20 21:00N 27°41' W 014°57'13 1.0
2020-Jan-20 07:00N 27°33' W 015°09'7 6.6
2020-Jan-20 06:00N 27°32' W 015°01'3 6.6
2020-Jan-20 05:30N 27°32' W 014°58'4 7.1
2020-Jan-20 05:00N 27°32' W 014°54'12 6.7
2020-Jan-20 03:11N 27°28' W 014°40'5 6.5
2020-Jan-20 02:23N 27°26' W 014°35'13 2.3
2020-Jan-19 20:58N 27°37' W 014°43'9 4.6
2020-Jan-19 19:01N 27°43' W 014°50'2 3.7
2020-Jan-19 18:29N 27°44' W 014°52'13 6.4
2020-Jan-19 16:30N 27°50' W 015°04'16 4.7
2020-Jan-19 13:00N 28°02' W 015°17'7 3.3
2020-Jan-19 11:00N 28°06' W 015°23'3 5.1
2020-Jan-19 10:30N 28°08' W 015°25'1 2.2
2020-Jan-19 09:58N 28°09' W 015°26'0 0.0
2020-Jan-19 08:25N 28°09' W 015°26'0 0.0
2020-Jan-19 06:28N 28°09' W 015°26'0 0.0
2020-Jan-19 04:19N 28°09' W 015°26'0 0.0
2020-Jan-19 03:22N 28°09' W 015°26'0 0.0
2020-Jan-19 00:55N 28°09' W 015°26'0 0.0
2020-Jan-19 00:25N 28°09' W 015°26'0 0.0
2020-Jan-18 21:58N 28°09' W 015°26'0 0.0
2020-Jan-18 21:28N 28°09' W 015°26'0 0.0
2020-Jan-18 20:28N 28°09' W 015°26'0 0.0
2020-Jan-18 19:28N 28°09' W 015°26'0 0.0
2020-Jan-18 17:58N 28°09' W 015°26'0 0.0
2020-Jan-18 17:16N 28°09' W 015°26'0 0.0
2020-Jan-18 16:28N 28°09' W 015°26'0 0.0
2020-Jan-18 15:19N 28°09' W 015°26'0 0.0
2020-Jan-18 14:49N 28°09' W 015°26'0 0.0
2020-Jan-18 13:22N 28°09' W 015°26'0 0.0
2020-Jan-18 10:25N 28°09' W 015°26'0 0.0
2020-Jan-18 09:55N 28°09' W 015°26'0 0.0
2020-Jan-18 06:28N 28°09' W 015°26'0 0.0
2020-Jan-18 05:58N 28°09' W 015°26'0 0.0
2020-Jan-18 03:46N 28°09' W 015°26'0 0.0
2020-Jan-18 01:58N 28°09' W 015°26'0 0.0
2020-Jan-18 00:49N 28°09' W 015°26'0 0.0
2020-Jan-17 23:52N 28°09' W 015°26'0 0.0
2020-Jan-17 19:55N 28°09' W 015°26'0 0.0
2020-Jan-17 18:28N 28°09' W 015°26'0 0.0
2020-Jan-17 17:28N 28°09' W 015°26'0 0.0
2020-Jan-17 16:28N 28°09' W 015°26'0 0.0
2020-Jan-17 14:55N 28°09' W 015°26'0 0.0
2020-Jan-17 11:28N 28°09' W 015°26'0 0.0
2020-Jan-17 08:22N 28°09' W 015°26'0 0.0
2020-Jan-17 06:55N 28°09' W 015°26'0 0.0
2020-Jan-17 04:55N 28°09' W 015°26'0 0.0
2020-Jan-17 04:28N 28°09' W 015°26'0 0.0
2020-Jan-17 03:55N 28°09' W 015°26'0 0.0
2020-Jan-17 02:28N 28°09' W 015°26'0 0.0
2020-Jan-17 00:28N 28°09' W 015°26'0 0.0
2020-Jan-16 17:22N 28°09' W 015°26'0 0.0
2020-Jan-16 16:55N 28°09' W 015°26'0 0.0
2020-Jan-16 13:58N 28°09' W 015°26'0 0.0
2020-Jan-16 12:58N 28°09' W 015°26'0 0.0
2020-Jan-16 12:28N 28°09' W 015°26'0 0.0
2020-Jan-16 11:58N 28°09' W 015°26'0 0.0
2020-Jan-16 10:58N 28°09' W 015°26'0 0.0
2020-Jan-16 09:28N 28°09' W 015°26'0 0.0
2020-Jan-16 08:28N 28°09' W 015°26'0 0.0
2020-Jan-16 04:22N 28°09' W 015°26'0 0.0
2020-Jan-16 03:52N 28°09' W 015°26'0 0.0
2020-Jan-16 02:55N 28°09' W 015°26'0 0.0
2020-Jan-16 02:25N 28°09' W 015°26'0 0.0
2020-Jan-16 01:25N 28°09' W 015°26'0 0.0
2020-Jan-15 23:28N 28°09' W 015°26'0 0.0
2020-Jan-15 22:28N 28°09' W 015°26'0 0.0
2020-Jan-15 19:46N 28°09' W 015°26'0 0.0
2020-Jan-15 19:28N 28°09' W 015°26'0 0.0
2020-Jan-15 17:58N 28°09' W 015°26'0 0.0
2020-Jan-15 13:52N 28°09' W 015°26'0 0.0
2020-Jan-15 12:31N 28°09' W 015°26'2 2.4
2020-Jan-15 11:31N 28°07' W 015°23'8 4.2
2020-Jan-15 09:31N 28°15' W 015°20'2 1.9
2020-Jan-15 08:30N 28°17' W 015°20'22 6.3
2020-Jan-15 05:00N 28°39' W 015°14'5 3.3
2020-Jan-15 03:30N 28°43' W 015°11'2 2.0
2020-Jan-15 02:30N 28°43' W 015°09'1 0.8
2020-Jan-15 01:31N 28°43' W 015°10'4 2.9
2020-Jan-15 00:01N 28°41' W 015°14'6 2.3
2020-Jan-14 21:30N 28°42' W 015°08'2 4.2
2020-Jan-14 21:01N 28°43' W 015°06'2 1.3
2020-Jan-14 19:30N 28°42' W 015°04'4 3.7
2020-Jan-14 18:30N 28°41' W 015°08'2 4.2
2020-Jan-14 18:00N 28°40' W 015°10'2 4.4
2020-Jan-14 17:30N 28°40' W 015°12'2 4.6
2020-Jan-14 17:00N 28°39' W 015°15'11 5.7
2020-Jan-14 15:00N 28°34' W 015°27'3 5.4
2020-Jan-14 14:30N 28°32' W 015°29'5 5.0
2020-Jan-14 13:30N 28°34' W 015°24'10 6.7
2020-Jan-14 12:01N 28°37' W 015°13'3 5.5
2020-Jan-14 11:31N 28°38' W 015°10'3 5.1
2020-Jan-14 11:01N 28°39' W 015°08'4 4.0
2020-Jan-14 10:01N 28°41' W 015°03'12 4.3
2020-Jan-14 07:18N 28°47' W 014°52'7 5.4
2020-Jan-14 06:00N 28°52' W 014°46'2 5.0
2020-Jan-14 05:30N 28°53' W 014°44'2 0.7
2020-Jan-14 03:00N 28°54' W 014°42'7 3.4 120 / 161021.0 18.013.119.0
2020-Jan-14 01:00N 28°50' W 014°48'11 2.6
2020-Jan-13 20:31N 28°43' W 014°58'8 3.3
2020-Jan-13 18:00N 28°39' W 015°07'4 3.6
2020-Jan-13 17:01N 28°37' W 015°10'14 2.8
2020-Jan-13 12:00N 28°26' W 015°20'2 2.4
2020-Jan-13 11:00N 28°23' W 015°20'3 1.1
2020-Jan-13 08:01N 28°26' W 015°18'5 3.2
2020-Jan-13 06:31N 28°31' W 015°17'  

Dump ship's entire track history